createdAt,value
2018-08-28T00:00:36.862Z,90.60
2018-08-28T00:03:06.327Z,90.60
2018-08-28T00:05:35.557Z,90.70
2018-08-28T00:08:05.037Z,90.70
2018-08-28T00:10:34.366Z,90.50
2018-08-28T00:13:03.607Z,90.40
2018-08-28T00:15:32.865Z,90.40
2018-08-28T00:18:02.202Z,90.40
2018-08-28T00:20:31.528Z,90.50
2018-08-28T00:23:00.734Z,90.60
2018-08-28T00:25:30.009Z,90.50
2018-08-28T00:27:59.285Z,90.70
2018-08-28T00:30:28.572Z,90.60
2018-08-28T00:32:57.800Z,90.70
2018-08-28T00:35:27.023Z,90.60
2018-08-28T00:37:56.229Z,90.70
2018-08-28T00:40:25.497Z,90.70
2018-08-28T00:42:54.696Z,90.80
2018-08-28T00:45:23.913Z,90.80
2018-08-28T00:47:53.177Z,90.70
2018-08-28T00:50:22.517Z,90.70
2018-08-28T00:52:51.723Z,90.70
2018-08-28T00:55:20.974Z,90.70
2018-08-28T00:57:50.182Z,90.60
2018-08-28T01:00:19.446Z,90.70
2018-08-28T01:02:48.671Z,90.60
2018-08-28T01:05:17.941Z,90.70
2018-08-28T01:07:47.238Z,90.60
2018-08-28T01:10:16.486Z,90.70
2018-08-28T01:12:45.695Z,90.80
2018-08-28T01:15:14.888Z,90.90
2018-08-28T01:17:44.096Z,90.90
2018-08-28T01:20:13.285Z,90.90
2018-08-28T01:22:42.505Z,90.90
2018-08-28T01:25:11.793Z,90.70
2018-08-28T01:27:41.021Z,90.50
2018-08-28T01:30:10.225Z,90.20
2018-08-28T01:32:39.454Z,90.00
2018-08-28T01:35:08.666Z,90.20
2018-08-28T01:37:37.881Z,90.20
2018-08-28T01:40:07.209Z,90.20
2018-08-28T01:42:36.427Z,90.40
2018-08-28T01:45:05.864Z,90.40
2018-08-28T01:47:35.077Z,90.20
2018-08-28T01:50:04.299Z,90.20
2018-08-28T01:52:33.516Z,89.70
2018-08-28T01:55:02.724Z,89.60
2018-08-28T01:57:32.005Z,90.00
2018-08-28T02:00:01.238Z,90.40
2018-08-28T02:02:30.519Z,90.90
2018-08-28T02:04:59.906Z,91.20
2018-08-28T02:07:29.160Z,91.80
2018-08-28T02:09:58.395Z,91.20
2018-08-28T02:12:27.641Z,91.50
2018-08-28T02:14:56.860Z,91.00
2018-08-28T02:17:26.239Z,90.90
2018-08-28T02:19:55.453Z,91.00
2018-08-28T02:22:24.660Z,90.90
2018-08-28T02:24:53.871Z,91.00
2018-08-28T02:27:23.103Z,91.30
2018-08-28T02:29:52.345Z,91.60
2018-08-28T02:32:21.600Z,92.00
2018-08-28T02:34:50.972Z,92.00
2018-08-28T02:37:20.283Z,92.00
2018-08-28T02:39:49.553Z,91.90
2018-08-28T02:42:18.845Z,91.90
2018-08-28T02:44:48.071Z,91.80
2018-08-28T02:47:17.293Z,91.80
2018-08-28T02:49:46.524Z,91.90
2018-08-28T02:52:15.762Z,92.10
2018-08-28T02:54:45.062Z,92.30
2018-08-28T02:57:14.295Z,92.30
2018-08-28T02:59:43.555Z,92.40
2018-08-28T03:02:12.786Z,92.50
2018-08-28T03:04:42.040Z,92.60
2018-08-28T03:07:11.285Z,92.40
2018-08-28T03:09:40.456Z,92.20
2018-08-28T03:12:09.676Z,91.70
2018-08-28T03:14:38.880Z,91.90
2018-08-28T03:17:08.177Z,91.90
2018-08-28T03:19:37.381Z,92.00
2018-08-28T03:22:06.638Z,92.20
2018-08-28T03:24:35.863Z,92.20
2018-08-28T03:27:05.173Z,92.20
2018-08-28T03:29:34.372Z,92.20
2018-08-28T03:32:03.636Z,92.10
2018-08-28T03:34:32.836Z,92.30
2018-08-28T03:37:02.169Z,91.70
2018-08-28T03:39:31.464Z,91.50
2018-08-28T03:42:00.699Z,91.60
2018-08-28T03:44:29.967Z,91.60
2018-08-28T03:47:00.561Z,91.80
2018-08-28T03:49:29.795Z,91.80
2018-08-28T03:51:59.028Z,91.90
2018-08-28T03:54:28.404Z,91.90
2018-08-28T03:56:57.649Z,91.80
2018-08-28T03:59:27.243Z,92.00
2018-08-28T04:01:56.465Z,92.00
2018-08-28T04:04:25.699Z,91.90
2018-08-28T04:06:54.934Z,91.90
2018-08-28T04:09:24.198Z,91.90
2018-08-28T04:11:53.446Z,91.80
2018-08-28T04:14:22.753Z,91.70
2018-08-28T04:16:52.086Z,91.50
2018-08-28T04:19:21.295Z,91.70
2018-08-28T04:21:50.526Z,91.80
2018-08-28T04:24:19.749Z,91.70
2018-08-28T04:26:48.989Z,91.70
2018-08-28T04:29:18.299Z,91.80
2018-08-28T04:31:47.540Z,91.80
2018-08-28T04:34:16.789Z,91.80
2018-08-28T04:36:46.021Z,91.80
2018-08-28T04:39:15.332Z,91.70
2018-08-28T04:41:44.545Z,91.70
2018-08-28T04:44:13.782Z,91.90
2018-08-28T04:46:43.005Z,92.00
2018-08-28T04:49:12.245Z,92.10
2018-08-28T04:51:41.452Z,92.00
2018-08-28T04:54:10.744Z,92.10
2018-08-28T04:56:39.951Z,92.10
2018-08-28T04:59:09.207Z,92.10
2018-08-28T05:01:38.476Z,92.20
2018-08-28T05:04:07.761Z,92.20
2018-08-28T05:06:37.000Z,92.40
2018-08-28T05:09:07.569Z,92.50
2018-08-28T05:11:36.860Z,92.40
2018-08-28T05:14:06.139Z,92.80
2018-08-28T05:16:35.362Z,92.40
2018-08-28T05:19:04.605Z,92.30
2018-08-28T05:21:33.813Z,92.00
2018-08-28T05:24:03.056Z,91.90
2018-08-28T05:26:32.281Z,91.90
2018-08-28T05:29:01.898Z,91.80
2018-08-28T05:31:31.187Z,91.70
2018-08-28T05:34:00.433Z,91.70
2018-08-28T05:36:29.657Z,91.60
2018-08-28T05:38:58.932Z,91.60
2018-08-28T05:41:28.153Z,91.60
2018-08-28T05:43:57.440Z,91.60
2018-08-28T05:46:26.732Z,91.40
2018-08-28T05:48:56.054Z,91.40
2018-08-28T05:51:25.256Z,91.30
2018-08-28T05:53:54.485Z,91.40
2018-08-28T05:56:23.676Z,91.40
2018-08-28T05:58:52.917Z,91.50
2018-08-28T06:01:22.145Z,91.40
2018-08-28T06:03:51.431Z,91.40
2018-08-28T06:06:20.730Z,91.70
2018-08-28T06:08:50.049Z,91.30
2018-08-28T06:11:19.396Z,91.30
2018-08-28T06:13:48.729Z,91.30
2018-08-28T06:16:18.023Z,91.80
2018-08-28T06:18:48.524Z,91.40
2018-08-28T06:21:17.800Z,91.30
2018-08-28T06:23:47.050Z,91.20
2018-08-28T06:26:16.339Z,91.10
2018-08-28T06:28:45.581Z,91.00
2018-08-28T06:31:14.793Z,90.60
2018-08-28T06:33:44.040Z,89.80
2018-08-28T06:36:13.456Z,88.10
2018-08-28T06:38:42.777Z,86.70
2018-08-28T06:41:11.993Z,84.50
2018-08-28T06:43:41.323Z,83.50
2018-08-28T06:46:10.568Z,82.50
2018-08-28T06:48:39.782Z,82.60
2018-08-28T06:51:09.012Z,81.50
2018-08-28T06:53:38.304Z,81.40
2018-08-28T06:56:07.516Z,79.10
2018-08-28T06:58:36.777Z,78.20
2018-08-28T07:01:06.006Z,78.20
2018-08-28T07:03:35.241Z,76.80
2018-08-28T07:06:04.454Z,75.50
2018-08-28T07:08:33.702Z,75.10
2018-08-28T07:11:03.161Z,76.40
2018-08-28T07:13:32.373Z,74.10
2018-08-28T07:16:01.636Z,75.10
2018-08-28T07:18:31.011Z,74.40
2018-08-28T07:21:00.497Z,74.90
2018-08-28T07:23:29.805Z,73.70
2018-08-28T07:25:59.092Z,71.80
2018-08-28T07:28:28.552Z,71.40
2018-08-28T07:30:57.814Z,72.50
2018-08-28T07:33:27.173Z,71.20
2018-08-28T07:35:56.474Z,71.00
2018-08-28T07:38:25.683Z,71.00
2018-08-28T07:40:54.999Z,70.20
2018-08-28T07:43:24.262Z,69.40
2018-08-28T07:45:53.499Z,69.40
2018-08-28T07:48:22.761Z,68.60
2018-08-28T07:51:00.331Z,69.50
2018-08-28T07:53:29.595Z,69.00
2018-08-28T07:55:58.834Z,68.30
2018-08-28T07:58:28.084Z,69.00
2018-08-28T08:00:57.572Z,69.40
2018-08-28T08:03:26.874Z,68.00
2018-08-28T08:05:56.628Z,68.00
2018-08-28T08:08:25.933Z,67.60
2018-08-28T08:10:55.128Z,66.90
2018-08-28T08:13:24.373Z,66.80
2018-08-28T08:15:53.749Z,66.20
2018-08-28T08:18:22.964Z,67.10
2018-08-28T08:20:52.210Z,66.60
2018-08-28T08:23:21.444Z,65.30
2018-08-28T08:25:50.712Z,66.30
2018-08-28T08:28:19.977Z,66.10
2018-08-28T08:30:49.186Z,66.60
2018-08-28T08:33:18.381Z,65.30
2018-08-28T08:35:47.635Z,65.30
2018-08-28T08:38:16.848Z,63.30
2018-08-28T08:40:46.285Z,64.40
2018-08-28T08:43:15.520Z,64.00
2018-08-28T08:45:44.741Z,63.40
2018-08-28T08:48:13.948Z,64.80
2018-08-28T08:50:43.163Z,64.80
2018-08-28T08:53:12.400Z,64.50
2018-08-28T08:55:41.658Z,64.10
2018-08-28T08:58:10.873Z,63.80
2018-08-28T09:00:40.089Z,64.50
2018-08-28T09:03:09.363Z,64.90
2018-08-28T09:05:38.621Z,65.10
2018-08-28T09:08:07.852Z,64.60
2018-08-28T09:10:37.306Z,64.50
2018-08-28T09:13:06.548Z,64.10
2018-08-28T09:15:35.757Z,64.60
2018-08-28T09:18:05.165Z,63.70
2018-08-28T09:20:34.430Z,64.00
2018-08-28T09:23:03.746Z,63.10
2018-08-28T09:25:32.995Z,64.00
2018-08-28T09:28:02.220Z,63.60
2018-08-28T09:30:31.754Z,63.40
2018-08-28T09:33:01.149Z,62.30
2018-08-28T09:35:30.405Z,62.20
2018-08-28T09:37:59.616Z,61.20
2018-08-28T09:40:28.833Z,61.00
2018-08-28T09:42:58.041Z,61.30
2018-08-28T09:45:27.270Z,61.30
2018-08-28T09:47:56.528Z,60.50
2018-08-28T09:50:25.891Z,61.80
2018-08-28T09:52:55.018Z,61.70
2018-08-28T09:55:24.233Z,60.80
2018-08-28T09:57:53.459Z,61.30
2018-08-28T10:00:28.362Z,60.10
2018-08-28T10:02:58.614Z,60.50
2018-08-28T10:05:27.985Z,60.30
2018-08-28T10:07:57.344Z,59.00
2018-08-28T10:10:26.547Z,58.50
2018-08-28T10:12:55.793Z,57.70
2018-08-28T10:15:25.034Z,56.80
2018-08-28T10:17:54.285Z,56.50
2018-08-28T10:20:23.537Z,55.90
2018-08-28T10:22:52.743Z,56.50
2018-08-28T10:25:22.015Z,57.50
2018-08-28T10:27:51.231Z,57.50
2018-08-28T10:30:20.670Z,57.60
2018-08-28T10:32:49.862Z,56.40
2018-08-28T10:35:19.130Z,56.10
2018-08-28T10:37:48.389Z,56.50
2018-08-28T10:40:17.631Z,56.30
2018-08-28T10:42:46.885Z,56.10
2018-08-28T10:45:16.212Z,56.20
2018-08-28T10:47:45.581Z,56.80
2018-08-28T10:50:14.830Z,56.10
2018-08-28T10:52:44.167Z,54.70
2018-08-28T10:55:13.381Z,55.00
2018-08-28T10:57:42.629Z,53.40
2018-08-28T11:00:11.899Z,52.80
2018-08-28T11:02:41.100Z,51.80
2018-08-28T11:05:10.370Z,51.10
2018-08-28T11:07:39.772Z,50.80
2018-08-28T11:10:09.756Z,50.90
2018-08-28T11:12:38.978Z,49.80
2018-08-28T11:15:08.346Z,49.70
2018-08-28T11:17:37.613Z,50.10
2018-08-28T11:20:07.098Z,49.70
2018-08-28T11:22:36.371Z,49.30
2018-08-28T11:25:06.078Z,47.70
2018-08-28T11:27:36.341Z,48.50
2018-08-28T11:30:05.609Z,49.20
2018-08-28T11:32:34.882Z,49.50
2018-08-28T11:35:04.391Z,48.80
2018-08-28T11:37:33.714Z,48.80
2018-08-28T11:40:02.979Z,47.50
2018-08-28T11:42:32.265Z,47.10
2018-08-28T11:45:01.474Z,46.90
2018-08-28T11:47:30.744Z,46.60
2018-08-28T11:49:59.952Z,47.30
2018-08-28T11:52:29.209Z,46.00
2018-08-28T11:54:58.441Z,46.30
2018-08-28T11:57:27.681Z,46.20
2018-08-28T11:59:56.929Z,45.70
2018-08-28T12:02:26.177Z,45.70
2018-08-28T12:04:55.510Z,45.40
2018-08-28T12:07:24.778Z,44.50
2018-08-28T12:09:53.977Z,44.90
2018-08-28T12:12:23.199Z,44.20
2018-08-28T12:14:52.477Z,43.60
2018-08-28T12:17:21.752Z,43.20
2018-08-28T12:19:50.961Z,42.20
2018-08-28T12:22:20.217Z,42.80
2018-08-28T12:24:49.441Z,43.10
2018-08-28T12:27:18.696Z,44.00
2018-08-28T12:29:48.100Z,44.90
2018-08-28T12:32:17.333Z,44.70
2018-08-28T12:34:46.596Z,43.90
2018-08-28T12:37:15.912Z,43.10
2018-08-28T12:39:45.104Z,43.00
2018-08-28T12:42:14.309Z,42.40
2018-08-28T12:44:43.502Z,42.40
2018-08-28T12:47:12.733Z,43.10
2018-08-28T12:49:41.980Z,42.70
2018-08-28T12:52:11.230Z,41.50
2018-08-28T12:54:40.528Z,41.20
2018-08-28T12:57:09.728Z,42.00
2018-08-28T12:59:38.950Z,42.50
2018-08-28T13:02:08.275Z,42.60
2018-08-28T13:04:37.525Z,42.30
2018-08-28T13:07:06.844Z,42.10
2018-08-28T13:09:36.101Z,41.90
2018-08-28T13:12:05.381Z,41.90
2018-08-28T13:14:34.843Z,41.40
2018-08-28T13:17:04.459Z,41.20
2018-08-28T13:19:33.741Z,40.80
2018-08-28T13:22:02.986Z,39.60
2018-08-28T13:24:32.201Z,40.40
2018-08-28T13:27:01.414Z,40.20
2018-08-28T13:29:30.728Z,39.70
2018-08-28T13:31:59.950Z,40.70
2018-08-28T13:34:29.161Z,40.50
2018-08-28T13:36:58.425Z,40.50
2018-08-28T13:39:27.643Z,40.00
2018-08-28T13:41:56.904Z,40.40
2018-08-28T13:44:26.130Z,40.20
2018-08-28T13:46:55.428Z,40.40
2018-08-28T13:49:24.601Z,41.10
2018-08-28T13:51:53.841Z,40.70
2018-08-28T13:54:23.178Z,39.90
2018-08-28T13:56:52.323Z,41.10
2018-08-28T13:59:21.529Z,40.10
2018-08-28T14:01:50.779Z,40.30
2018-08-28T14:04:20.017Z,40.10
2018-08-28T14:06:49.241Z,39.90
2018-08-28T14:09:18.473Z,40.00
2018-08-28T14:11:47.732Z,40.30
2018-08-28T14:14:16.985Z,40.00
2018-08-28T14:16:46.274Z,40.00
2018-08-28T14:19:15.489Z,40.00
2018-08-28T14:21:44.736Z,40.30
2018-08-28T14:24:13.944Z,40.10
2018-08-28T14:26:43.222Z,40.60
2018-08-28T14:29:12.487Z,40.50
2018-08-28T14:31:41.724Z,40.10
2018-08-28T14:34:10.961Z,40.60
2018-08-28T14:36:40.174Z,40.60
2018-08-28T14:39:09.437Z,40.10
2018-08-28T14:41:38.656Z,40.10
2018-08-28T14:44:08.139Z,40.40
2018-08-28T14:46:37.577Z,40.30
2018-08-28T14:49:06.929Z,40.40
2018-08-28T14:51:36.165Z,40.20
2018-08-28T14:54:05.446Z,40.20
2018-08-28T14:56:34.857Z,40.10
2018-08-28T14:59:04.022Z,40.40
2018-08-28T15:01:33.250Z,40.40
2018-08-28T15:04:02.544Z,40.60
2018-08-28T15:06:31.760Z,40.50
2018-08-28T15:09:01.012Z,40.40
2018-08-28T15:11:30.272Z,40.30
2018-08-28T15:13:59.540Z,40.10
2018-08-28T15:16:28.807Z,40.10
2018-08-28T15:18:58.113Z,40.20
2018-08-28T15:21:27.325Z,40.60
2018-08-28T15:23:56.557Z,40.60
2018-08-28T15:26:25.764Z,40.70
2018-08-28T15:28:55.003Z,40.90
2018-08-28T15:31:24.233Z,40.50
2018-08-28T15:33:53.475Z,40.40
2018-08-28T15:36:22.699Z,40.60
2018-08-28T15:38:51.971Z,40.60
2018-08-28T15:41:21.172Z,40.40
2018-08-28T15:43:50.396Z,40.60
2018-08-28T15:46:19.643Z,40.80
2018-08-28T15:48:48.905Z,40.60
2018-08-28T15:51:19.264Z,40.80
2018-08-28T15:53:48.517Z,40.90
2018-08-28T15:56:17.726Z,41.10
2018-08-28T15:58:47.015Z,41.10
2018-08-28T16:01:16.245Z,41.30
2018-08-28T16:03:45.543Z,41.30
2018-08-28T16:06:14.844Z,41.50
2018-08-28T16:08:44.091Z,41.60
2018-08-28T16:11:13.337Z,41.50
2018-08-28T16:13:42.589Z,42.00
2018-08-28T16:16:11.845Z,42.10
2018-08-28T16:18:41.114Z,42.20
2018-08-28T16:21:10.381Z,42.50
2018-08-28T16:23:42.198Z,42.60
2018-08-28T16:26:11.412Z,42.60
2018-08-28T16:28:41.750Z,43.20
2018-08-28T16:31:10.939Z,42.80
2018-08-28T16:33:40.210Z,42.80
2018-08-28T16:36:09.456Z,43.00
2018-08-28T16:38:38.721Z,42.90
2018-08-28T16:41:08.070Z,42.80
2018-08-28T16:43:37.264Z,42.60
2018-08-28T16:46:06.492Z,43.30
2018-08-28T16:48:35.781Z,42.40
2018-08-28T16:51:05.021Z,42.50
2018-08-28T16:53:34.285Z,42.60
2018-08-28T16:56:03.559Z,43.00
2018-08-28T16:58:32.816Z,43.30
2018-08-28T17:01:02.088Z,43.30
2018-08-28T17:03:31.363Z,43.30
2018-08-28T17:06:00.641Z,42.90
2018-08-28T17:08:29.877Z,43.00
2018-08-28T17:10:59.180Z,43.70
2018-08-28T17:13:28.479Z,44.30
2018-08-28T17:15:57.769Z,44.70
2018-08-28T17:18:27.044Z,45.30
2018-08-28T17:20:56.331Z,45.40
2018-08-28T17:23:25.561Z,45.80
2018-08-28T17:25:54.782Z,46.20
2018-08-28T17:28:24.045Z,46.30
2018-08-28T17:30:53.326Z,46.70
2018-08-28T17:33:22.592Z,46.90
2018-08-28T17:35:51.821Z,47.30
2018-08-28T17:38:21.087Z,47.50
2018-08-28T17:40:50.317Z,47.70
2018-08-28T17:43:19.561Z,47.80
2018-08-28T17:45:48.800Z,48.20
2018-08-28T17:48:18.042Z,48.50
2018-08-28T17:50:47.363Z,48.80
2018-08-28T17:53:16.664Z,48.80
2018-08-28T17:55:45.897Z,49.20
2018-08-28T17:58:15.121Z,49.30
2018-08-28T18:00:51.147Z,49.40
2018-08-28T18:03:20.425Z,49.50
2018-08-28T18:05:49.726Z,50.00
2018-08-28T18:08:18.948Z,50.10
2018-08-28T18:10:48.280Z,50.20
2018-08-28T18:13:17.460Z,50.30
2018-08-28T18:15:46.743Z,50.60
2018-08-28T18:18:15.997Z,50.70
2018-08-28T18:20:45.249Z,50.80
2018-08-28T18:23:14.485Z,50.90
2018-08-28T18:25:43.737Z,51.00
2018-08-28T18:28:12.954Z,51.20
2018-08-28T18:30:42.201Z,51.10
2018-08-28T18:33:11.389Z,51.30
2018-08-28T18:35:40.670Z,51.40
2018-08-28T18:38:09.879Z,51.20
2018-08-28T18:40:39.136Z,51.60
2018-08-28T18:43:08.378Z,51.80
2018-08-28T18:45:37.630Z,52.00
2018-08-28T18:48:06.905Z,52.20
2018-08-28T18:50:36.175Z,52.50
2018-08-28T18:53:05.440Z,52.50
2018-08-28T18:55:34.726Z,52.60
2018-08-28T18:58:03.969Z,52.80
2018-08-28T19:00:33.243Z,52.80
2018-08-28T19:03:02.653Z,52.90
2018-08-28T19:05:31.898Z,52.90
2018-08-28T19:08:01.223Z,53.00
2018-08-28T19:10:30.585Z,53.20
2018-08-28T19:12:59.897Z,53.30
2018-08-28T19:15:29.234Z,53.20
2018-08-28T19:17:58.466Z,53.50
2018-08-28T19:20:28.044Z,53.70
2018-08-28T19:22:58.724Z,54.30
2018-08-28T19:25:28.034Z,53.90
2018-08-28T19:27:57.264Z,53.90
2018-08-28T19:30:26.508Z,54.10
2018-08-28T19:32:55.869Z,54.30
2018-08-28T19:35:25.139Z,54.50
2018-08-28T19:37:54.403Z,54.50
2018-08-28T19:40:23.635Z,54.70
2018-08-28T19:42:52.878Z,54.60
2018-08-28T19:45:22.198Z,55.00
2018-08-28T19:47:51.499Z,55.00
2018-08-28T19:50:20.824Z,55.30
2018-08-28T19:52:50.136Z,55.40
2018-08-28T19:55:19.433Z,55.50
2018-08-28T19:57:48.670Z,55.60
2018-08-28T20:00:17.937Z,55.90
2018-08-28T20:02:47.194Z,55.80
2018-08-28T20:05:16.477Z,56.40
2018-08-28T20:07:45.752Z,56.10
2018-08-28T20:10:15.454Z,56.30
2018-08-28T20:12:44.767Z,56.30
2018-08-28T20:15:14.090Z,56.80
2018-08-28T20:17:43.356Z,56.70
2018-08-28T20:20:12.602Z,57.00
2018-08-28T20:22:41.836Z,58.10
2018-08-28T20:25:11.077Z,58.60
2018-08-28T20:27:40.289Z,60.50
2018-08-28T20:30:09.576Z,59.90
2018-08-28T20:32:38.801Z,60.30
2018-08-28T20:35:08.128Z,60.70
2018-08-28T20:37:37.348Z,60.70
2018-08-28T20:40:06.905Z,60.40
2018-08-28T20:42:36.372Z,60.80
2018-08-28T20:45:05.738Z,60.50
2018-08-28T20:47:34.950Z,61.00
2018-08-28T20:50:04.209Z,61.50
2018-08-28T20:52:33.478Z,62.70
2018-08-28T20:55:02.735Z,63.10
2018-08-28T20:57:31.968Z,64.50
2018-08-28T21:00:01.311Z,64.00
2018-08-28T21:02:30.933Z,64.40
2018-08-28T21:05:00.214Z,64.40
2018-08-28T21:07:29.497Z,64.30
2018-08-28T21:09:58.778Z,64.00
2018-08-28T21:12:28.287Z,64.50
2018-08-28T21:14:57.544Z,65.00
2018-08-28T21:17:26.803Z,65.00
2018-08-28T21:19:56.045Z,65.00
2018-08-28T21:22:25.253Z,65.60
2018-08-28T21:24:54.494Z,65.80
2018-08-28T21:27:23.724Z,66.20
2018-08-28T21:29:52.935Z,66.70
2018-08-28T21:32:22.235Z,67.00
2018-08-28T21:34:51.456Z,66.80
2018-08-28T21:37:20.752Z,66.50
2018-08-28T21:39:49.944Z,67.70
2018-08-28T21:42:19.278Z,67.40
2018-08-28T21:44:48.500Z,67.50
2018-08-28T21:47:17.758Z,67.70
2018-08-28T21:49:47.576Z,67.70
2018-08-28T21:52:16.822Z,67.40
2018-08-28T21:54:46.441Z,67.40
2018-08-28T21:57:15.752Z,67.20
2018-08-28T21:59:44.982Z,67.60
2018-08-28T22:02:14.213Z,67.70
2018-08-28T22:04:43.420Z,68.30
2018-08-28T22:07:18.049Z,68.50
2018-08-28T22:09:47.251Z,68.40
2018-08-28T22:12:16.501Z,68.90
2018-08-28T22:14:45.740Z,69.50
2018-08-28T22:17:15.019Z,69.90
2018-08-28T22:19:44.239Z,70.20
2018-08-28T22:22:13.478Z,70.90
2018-08-28T22:24:42.711Z,71.80
2018-08-28T22:27:11.955Z,71.50
2018-08-28T22:29:41.193Z,71.50
2018-08-28T22:32:10.440Z,71.80
2018-08-28T22:34:39.656Z,72.10
2018-08-28T22:37:08.883Z,72.50
2018-08-28T22:39:38.103Z,72.80
2018-08-28T22:42:07.347Z,73.10
2018-08-28T22:44:36.578Z,73.20
2018-08-28T22:47:05.831Z,72.70
2018-08-28T22:49:35.052Z,72.30
2018-08-28T22:52:04.307Z,72.80
2018-08-28T22:54:33.511Z,73.00
2018-08-28T22:57:02.780Z,73.30
2018-08-28T22:59:32.011Z,73.80
2018-08-28T23:02:01.233Z,74.00
2018-08-28T23:04:30.467Z,74.00
2018-08-28T23:06:59.724Z,74.20
2018-08-28T23:09:28.927Z,73.80
2018-08-28T23:11:58.164Z,74.50
2018-08-28T23:14:27.394Z,74.80
2018-08-28T23:16:56.624Z,74.60
2018-08-28T23:19:25.823Z,74.30
2018-08-28T23:21:55.024Z,74.10
2018-08-28T23:24:24.298Z,74.10
2018-08-28T23:26:53.528Z,74.40
2018-08-28T23:29:22.787Z,74.70
2018-08-28T23:31:52.026Z,75.50
2018-08-28T23:34:21.264Z,75.80
2018-08-28T23:36:50.549Z,75.90
2018-08-28T23:39:19.791Z,75.80
2018-08-28T23:41:49.011Z,75.90
2018-08-28T23:44:18.215Z,76.60
2018-08-28T23:46:47.444Z,76.80
2018-08-28T23:49:16.688Z,77.00
2018-08-28T23:51:45.964Z,77.10
2018-08-28T23:54:16.207Z,77.50
2018-08-28T23:56:45.431Z,77.70
2018-08-28T23:59:14.681Z,77.40
